Time;durP1;ratioP1;P1;durP2;ratioP2;P2;SDS_P1;SDS_P2;PMS_P1;PMS_P2;Temp;Humidity;BMP_temperature;BMP_pressure;BME280_temperature;BME280_humidity;BME280_pressure;Samples;Min_cycle;Max_cycle;Signal;HPM_P1;HPM_P2
2021/05/28 04:40:43;;;;;;;8.15;2.80;;;;;;;14.05;68.73;97872.16;1848092;76;23275;-68
2021/05/28 04:43:11;;;;;;;4.50;2.62;;;;;;;14.12;68.32;97873.83;1818144;79;20925;-67
2021/05/28 04:45:39;;;;;;;4.17;2.77;;;;;;;14.26;67.76;97870.42;1818230;79;21728;-69
2021/05/28 04:48:06;;;;;;;4.45;2.80;;;;;;;14.39;67.48;97874.34;1818063;78;20938;-68
2021/05/28 04:50:36;;;;;;;6.35;2.90;;;;;;;14.55;67.18;97880.05;1818223;79;21297;-67
2021/05/28 04:53:04;;;;;;;8.03;2.70;;;;;;;14.72;67.18;97877.32;1818100;79;20842;-66
2021/05/28 04:55:32;;;;;;;6.37;2.72;;;;;;;14.88;66.94;97874.39;1818123;79;21324;-66
2021/05/28 04:57:59;;;;;;;3.80;2.50;;;;;;;15.01;66.37;97872.05;1818114;79;21344;-67
2021/05/28 05:00:27;;;;;;;4.05;2.92;;;;;;;15.08;65.92;97872.89;1817956;79;21483;-67
2021/05/28 05:02:54;;;;;;;4.22;2.80;;;;;;;15.14;65.77;97870.82;1818083;79;20982;-67
2021/05/28 05:05:21;;;;;;;3.95;2.75;;;;;;;15.18;65.51;97869.05;1818158;79;21455;-67
2021/05/28 05:07:48;;;;;;;5.53;3.20;;;;;;;15.20;65.40;97874.92;1818115;79;20957;-68
2021/05/28 05:10:16;;;;;;;5.72;3.87;;;;;;;15.22;65.32;97876.73;1818028;79;22100;-67
2021/05/28 05:12:44;;;;;;;6.00;3.20;;;;;;;15.25;65.39;97884.98;1817896;79;20953;-67
2021/05/28 05:15:12;;;;;;;7.10;2.98;;;;;;;15.30;65.19;97881.32;1817966;79;20922;-68
2021/05/28 05:17:39;;;;;;;5.90;2.98;;;;;;;15.33;65.18;97879.33;1817923;79;20890;-68
2021/05/28 05:20:09;;;;;;;11.93;3.00;;;;;;;15.38;65.13;97875.11;1818149;79;21549;-68
2021/05/28 05:22:36;;;;;;;5.87;3.42;;;;;;;15.48;64.93;97876.11;1817973;79;21056;-66
2021/05/28 05:25:05;;;;;;;10.60;3.67;;;;;;;15.54;64.59;97870.78;1818023;78;20879;-67
2021/05/28 05:27:33;;;;;;;5.62;3.42;;;;;;;15.56;64.32;97866.64;1818479;79;20901;-67
2021/05/28 05:30:00;;;;;;;8.20;3.45;;;;;;;15.60;64.33;97872.17;1818149;79;20889;-67
2021/05/28 05:32:27;;;;;;;6.47;3.87;;;;;;;15.61;64.01;97864.31;1817927;79;21021;-68
2021/05/28 05:34:56;;;;;;;9.38;3.90;;;;;;;15.63;64.04;97868.83;1818030;79;21060;-66
2021/05/28 05:37:23;;;;;;;11.45;3.83;;;;;;;15.67;64.13;97871.09;1818071;79;20850;-67
2021/05/28 05:39:50;;;;;;;8.35;3.70;;;;;;;15.68;64.10;97868.09;1811962;79;20894;-67
2021/05/28 05:42:17;;;;;;;5.53;3.42;;;;;;;15.70;64.02;97864.50;1806795;79;20973;-68
2021/05/28 05:44:44;;;;;;;10.65;3.05;;;;;;;15.74;63.91;97864.63;1806824;79;20902;-68
2021/05/28 05:47:11;;;;;;;11.80;2.87;;;;;;;15.79;63.86;97873.90;1806906;79;21059;-67
2021/05/28 05:49:37;;;;;;;6.08;2.72;;;;;;;15.85;63.83;97871.81;1806851;79;20887;-68
2021/05/28 05:52:05;;;;;;;5.60;2.98;;;;;;;15.91;63.72;97875.34;1806307;79;20910;-67
2021/05/28 05:54:32;;;;;;;5.47;2.52;;;;;;;15.99;63.64;97870.42;1807122;77;21012;-68
2021/05/28 05:57:00;;;;;;;5.47;2.52;;;;;;;16.06;63.28;97870.70;1791518;79;20993;-66
2021/05/28 05:59:29;;;;;;;3.85;2.47;;;;;;;16.10;62.93;97870.30;1793713;78;22120;-66
2021/05/28 06:01:56;;;;;;;7.08;3.05;;;;;;;16.11;62.68;97870.51;1798575;77;21541;-67
2021/05/28 06:04:23;;;;;;;6.17;2.50;;;;;;;16.17;62.70;97869.20;1804021;79;20995;-65
2021/05/28 06:06:50;;;;;;;5.67;2.65;;;;;;;16.22;62.54;97869.02;1804939;79;20902;-67
2021/05/28 06:09:17;;;;;;;4.53;2.70;;;;;;;16.29;62.73;97869.28;1803681;79;21080;-68
2021/05/28 06:11:44;;;;;;;5.53;2.40;;;;;;;16.36;62.35;97869.55;1734269;82;21152;-67
2021/05/28 06:14:12;;;;;;;10.03;2.72;;;;;;;16.41;62.10;97884.22;1743377;82;21588;-67
2021/05/28 06:16:40;;;;;;;4.78;2.05;;;;;;;16.45;62.03;97882.98;1803522;79;21108;-67
2021/05/28 06:19:07;;;;;;;8.58;2.47;;;;;;;16.50;62.08;97881.98;1804346;79;20954;-68
2021/05/28 06:21:34;;;;;;;5.90;2.58;;;;;;;16.51;61.74;97888.98;1735914;82;21427;-68
2021/05/28 06:24:02;;;;;;;10.15;2.60;;;;;;;16.55;62.18;97891.28;1744892;82;20963;-67
2021/05/28 06:26:29;;;;;;;18.60;3.17;;;;;;;16.65;62.35;97893.59;1801591;79;20973;-66
2021/05/28 06:29:02;;;;;;;13.98;2.47;;;;;;;16.79;62.00;97895.45;1735859;82;21501;-65
2021/05/28 06:31:30;;;;;;;9.33;2.75;;;;;;;16.91;61.44;97894.14;1737209;82;21139;-69
2021/05/28 06:33:57;;;;;;;12.13;3.40;;;;;;;16.98;61.04;97882.98;1778448;79;20961;-69
2021/05/28 06:36:26;;;;;;;18.25;3.50;;;;;;;17.07;61.07;97886.39;1776229;78;21492;-70
2021/05/28 06:38:53;;;;;;;14.63;3.98;;;;;;;17.16;60.91;97883.61;1835397;77;21398;-68
2021/05/28 06:41:22;;;;;;;13.55;3.27;;;;;;;17.25;60.83;97884.86;1758345;81;21364;-68
2021/05/28 06:43:50;;;;;;;16.05;3.50;;;;;;;17.33;60.98;97887.48;1828624;78;20883;-68
2021/05/28 06:46:19;;;;;;;14.30;3.83;;;;;;;17.43;60.49;97887.02;1843072;77;21054;-67
2021/05/28 06:48:52;;;;;;;12.13;3.42;;;;;;;17.43;60.56;97882.97;1842799;77;20894;-67
2021/05/28 06:51:19;;;;;;;12.65;3.10;;;;;;;17.48;60.68;97878.69;1842947;77;20950;-68
2021/05/28 06:53:48;;;;;;;10.32;2.87;;;;;;;17.51;60.03;97880.76;1758473;81;20918;-72
2021/05/28 06:56:15;;;;;;;10.30;3.02;;;;;;;17.56;60.32;97881.09;1828683;78;21082;-68
2021/05/28 06:58:48;;;;;;;17.23;3.40;;;;;;;17.61;60.02;97884.38;1828684;78;20864;-69
2021/05/28 07:01:12;;;;;;;8.08;2.90;;;;;;;17.67;60.06;97878.95;1758030;81;21071;-68
2021/05/28 07:03:40;;;;;;;7.12;2.80;;;;;;;17.74;59.84;97876.47;1827298;78;21548;-67
2021/05/28 07:06:08;;;;;;;13.13;3.40;;;;;;;17.80;59.74;97877.60;1757061;81;21069;-67
2021/05/28 07:08:35;;;;;;;11.03;2.80;;;;;;;17.90;59.76;97874.45;1842637;77;21081;-68
2021/05/28 07:11:03;;;;;;;14.63;3.00;;;;;;;18.03;59.79;97872.73;1758339;81;21452;-68
2021/05/28 07:13:30;;;;;;;10.50;3.08;;;;;;;18.19;59.19;97868.73;1842561;77;20998;-69
2021/05/28 07:15:59;;;;;;;8.70;3.40;;;;;;;18.31;59.01;97863.29;1757937;81;21571;-69
2021/05/28 07:18:27;;;;;;;14.40;3.05;;;;;;;18.44;58.42;97862.91;1842835;77;21345;-66
2021/05/28 07:20:54;;;;;;;12.63;2.90;;;;;;;18.56;58.09;97862.69;1841100;77;20993;-70
2021/05/28 07:23:23;;;;;;;10.70;2.35;;;;;;;18.70;57.98;97855.71;1760546;81;20921;-68
2021/05/28 07:25:50;;;;;;;7.08;2.05;;;;;;;18.85;57.36;97865.83;1842773;77;21048;-69
2021/05/28 07:28:17;;;;;;;3.45;1.40;;;;;;;18.98;55.62;97857.84;1760369;81;20953;-67
2021/05/28 07:30:47;;;;;;;4.50;1.45;;;;;;;19.04;54.28;97853.75;1842236;78;21550;-67
2021/05/28 07:33:14;;;;;;;2.90;1.37;;;;;;;19.08;53.53;97842.97;1842437;78;20871;-67
2021/05/28 07:35:41;;;;;;;2.10;1.17;;;;;;;19.13;53.50;97844.87;1760879;81;20862;-68
2021/05/28 07:38:09;;;;;;;1.98;1.07;;;;;;;19.22;53.19;97840.61;1842393;78;21475;-69
2021/05/28 07:40:37;;;;;;;3.83;1.15;;;;;;;19.32;52.18;97838.74;1771616;80;20910;-70
2021/05/28 07:43:04;;;;;;;6.28;1.30;;;;;;;19.45;52.21;97842.20;1828743;78;20969;-69
2021/05/28 07:45:32;;;;;;;6.60;1.10;;;;;;;19.60;51.29;97842.73;1780006;80;21488;-69
2021/05/28 07:48:00;;;;;;;4.83;1.00;;;;;;;19.71;50.98;97834.29;1827309;78;20914;-69
2021/05/28 07:50:28;;;;;;;2.75;1.00;;;;;;;19.83;50.46;97826.03;1788859;80;21523;-68
2021/05/28 07:52:55;;;;;;;1.98;1.00;;;;;;;19.99;50.52;97827.34;1789055;80;20957;-70
2021/05/28 07:55:22;;;;;;;4.30;1.05;;;;;;;20.14;49.82;97818.33;1788855;80;20858;-65
2021/05/28 07:57:49;;;;;;;7.12;1.10;;;;;;;20.25;49.39;97822.91;1796681;78;20997;-69
2021/05/28 08:00:18;;;;;;;2.40;1.17;;;;;;;20.31;48.92;97817.39;1821215;78;20965;-70
2021/05/28 08:02:47;;;;;;;5.15;1.30;;;;;;;20.39;48.65;97812.32;1833283;77;21032;-68
2021/05/28 08:05:15;;;;;;;1.70;1.20;;;;;;;20.52;48.56;97817.59;1855561;77;21465;-70
2021/05/28 08:07:43;;;;;;;2.35;1.07;;;;;;;20.62;47.27;97811.58;1855420;77;21262;-68
2021/05/28 08:10:12;;;;;;;2.02;0.98;;;;;;;20.63;46.79;97806.36;1855086;77;20854;-70
2021/05/28 08:12:39;;;;;;;6.25;1.25;;;;;;;20.66;47.62;97805.05;1821745;77;20945;-70
2021/05/28 08:15:11;;;;;;;5.33;1.20;;;;;;;20.73;47.78;97812.55;1790973;78;21052;-71
2021/05/28 08:17:38;;;;;;;4.10;1.77;;;;;;;20.81;47.48;97808.83;1788020;80;20989;-69
2021/05/28 08:20:08;;;;;;;2.52;1.25;;;;;;;20.84;46.55;97819.01;1788743;79;20958;-69
2021/05/28 08:22:35;;;;;;;2.52;1.07;;;;;;;20.85;46.32;97813.76;1788532;80;21001;-69
2021/05/28 08:27:53;;;;;;;2.70;1.40;;;;;;;20.78;45.99;97815.78;1711761;83;21120;-70
2021/05/28 08:30:21;;;;;;;6.62;1.50;;;;;;;20.84;46.22;97820.38;1718015;82;21482;-70
2021/05/28 08:32:49;;;;;;;2.60;1.02;;;;;;;20.92;46.17;97816.05;1718096;82;20947;-68
2021/05/28 08:35:16;;;;;;;3.17;1.10;;;;;;;20.99;46.11;97809.94;1706734;82;21026;-69
2021/05/28 08:37:44;;;;;;;3.10;1.30;;;;;;;21.03;45.74;97814.89;1717851;83;21059;-68
2021/05/28 08:40:12;;;;;;;6.47;1.10;;;;;;;21.06;46.01;97816.33;1713018;83;21166;-70
2021/05/28 08:42:40;;;;;;;3.95;1.10;;;;;;;21.13;46.04;97817.62;1704987;83;21099;-70
2021/05/28 08:45:09;;;;;;;2.20;1.17;;;;;;;21.20;46.20;97812.29;1703288;84;21110;-68
2021/05/28 08:47:41;;;;;;;3.42;1.00;;;;;;;21.26;46.51;97808.89;1706603;84;20986;-73
2021/05/28 08:50:15;;;;;;;1.30;1.10;;;;;;;21.33;45.32;97815.82;1719431;82;21482;-68
2021/05/28 08:52:51;;;;;;;2.70;1.30;;;;;;;21.35;45.38;97810.79;1739239;82;21140;-68
2021/05/28 08:55:19;;;;;;;;;;;;;;;21.41;45.39;97805.23;1725469;82;21023;-70
2021/05/28 08:57:47;;;;;;;1.70;1.10;;;;;;;21.43;45.45;97815.19;1715807;83;20499;-67
2021/05/28 09:00:16;;;;;;;3.70;1.10;;;;;;;21.41;45.04;97816.13;1732737;82;20998;-68
2021/05/28 09:02:45;;;;;;;2.87;0.98;;;;;;;21.29;45.23;97819.04;1745559;82;20910;-68
2021/05/28 09:05:16;;;;;;;1.87;1.10;;;;;;;21.15;45.57;97815.31;1717816;82;22133;-69
2021/05/28 09:08:00;;;;;;;2.10;1.32;;;;;;;20.99;46.10;97812.66;1699431;84;20928;-68
2021/05/28 09:10:41;;;;;;;2.08;1.02;;;;;;;20.84;46.33;97821.73;1703575;83;21087;-69
2021/05/28 09:13:13;;;;;;;4.10;1.10;;;;;;;20.65;46.48;97819.03;1699301;84;21006;-69
2021/05/28 09:15:44;;;;;;;6.70;1.42;;;;;;;20.47;47.14;97820.63;1699365;84;20995;-67
2021/05/28 09:18:12;;;;;;;4.80;1.20;;;;;;;20.32;47.15;97823.05;1683476;85;21160;-69
2021/05/28 09:20:40;;;;;;;3.55;1.60;;;;;;;20.19;47.44;97825.65;1682656;85;21200;-68
2021/05/28 09:23:16;;;;;;;3.02;1.70;;;;;;;20.12;47.62;97828.22;1741719;81;20987;-68
2021/05/28 09:26:05;;;;;;;1.98;1.37;;;;;;;20.07;48.00;97827.13;1745643;81;21034;-69
2021/05/28 09:28:46;;;;;;;3.70;1.85;;;;;;;20.07;47.79;97821.69;1761008;81;21098;-69
2021/05/28 09:31:18;;;;;;;3.50;1.90;;;;;;;20.12;48.44;97824.70;1726303;80;21133;-70
2021/05/28 09:33:49;;;;;;;3.92;1.67;;;;;;;20.14;47.96;97819.13;1714115;82;20877;-69
2021/05/28 09:36:27;;;;;;;8.40;1.40;;;;;;;20.18;48.24;97822.73;1715577;82;20993;-68
2021/05/28 09:39:11;;;;;;;2.37;1.25;;;;;;;20.16;48.09;97822.27;1715970;83;21113;-72
2021/05/28 09:42:00;;;;;;;2.58;1.40;;;;;;;20.09;48.15;97819.41;1715814;83;21594;-69
2021/05/28 09:44:32;;;;;;;4.03;1.40;;;;;;;19.96;47.76;97816.61;1716061;83;21180;-71
2021/05/28 09:47:14;;;;;;;4.00;1.35;;;;;;;19.87;48.59;97828.25;1715960;83;21595;-70
2021/05/28 09:49:48;;;;;;;5.95;1.90;;;;;;;19.84;49.08;97828.16;1716003;83;21060;-72
2021/05/28 09:52:24;;;;;;;3.50;1.52;;;;;;;19.80;48.67;97828.09;1717374;83;21045;-69
2021/05/28 09:55:05;;;;;;;4.37;1.72;;;;;;;19.78;48.69;97827.66;1717967;83;21017;-69
2021/05/28 09:57:41;;;;;;;5.20;1.45;;;;;;;19.78;49.00;97826.30;1716417;82;21100;-68
2021/05/28 10:00:24;;;;;;;4.50;1.60;;;;;;;19.76;49.45;97833.99;1695640;84;21010;-71
2021/05/28 10:03:22;;;;;;;4.60;2.43;;;;;;;19.72;50.01;97835.84;1677438;84;21018;-70
2021/05/28 10:05:52;;;;;;;7.78;3.40;;;;;;;19.64;51.55;97842.27;1695113;83;21042;-71
2021/05/28 10:08:21;;;;;;;10.20;5.97;;;;;;;19.47;54.61;97842.63;1695440;84;20962;-71
2021/05/28 10:10:49;;;;;;;9.45;4.35;;;;;;;19.34;56.50;97849.24;1695430;84;21522;-72
2021/05/28 10:13:21;;;;;;;6.45;4.22;;;;;;;19.18;58.82;97852.52;1695418;84;21049;-70
2021/05/28 10:15:52;;;;;;;6.35;3.40;;;;;;;18.93;60.39;97860.03;1695392;84;20935;-72
2021/05/28 10:18:20;;;;;;;5.22;3.75;;;;;;;18.66;62.22;97867.05;1694283;84;21120;-70
2021/05/28 10:20:51;;;;;;;8.18;4.42;;;;;;;18.38;63.35;97867.56;1694410;84;21105;-71
2021/05/28 10:23:20;;;;;;;9.40;6.53;;;;;;;18.13;64.63;97872.83;1694494;84;21674;-69
2021/05/28 10:25:48;;;;;;;10.60;7.10;;;;;;;17.93;65.84;97873.74;1694452;84;21587;-71
2021/05/28 10:28:18;;;;;;;12.85;9.25;;;;;;;17.78;66.77;97877.36;1679217;84;21446;-70
2021/05/28 10:30:45;;;;;;;13.85;8.85;;;;;;;17.71;67.54;97877.73;1678661;85;20908;-71
2021/05/28 10:33:30;;;;;;;11.53;10.32;;;;;;;17.59;68.50;97889.33;1679989;84;21167;-69
2021/05/28 10:36:04;;;;;;;7.67;4.83;;;;;;;17.44;68.88;97898.09;1681186;85;21567;-71
2021/05/28 10:38:43;;;;;;;6.10;4.37;;;;;;;17.26;69.70;97896.72;1684421;84;20966;-71
2021/05/28 10:41:18;;;;;;;5.97;3.90;;;;;;;17.21;70.37;97898.84;1737994;81;21562;-71
2021/05/28 10:43:54;;;;;;;12.35;8.95;;;;;;;17.21;70.75;97902.34;1729899;82;21335;-70
2021/05/28 10:46:21;;;;;;;14.07;9.80;;;;;;;17.21;71.10;97905.05;1729842;83;21009;-70
2021/05/28 10:49:00;;;;;;;9.65;8.65;;;;;;;17.18;71.14;97902.20;1729874;83;21078;-71
2021/05/28 10:51:37;;;;;;;6.35;5.17;;;;;;;17.12;70.98;97903.00;1729695;83;21028;-73
2021/05/28 10:54:09;;;;;;;4.67;3.58;;;;;;;17.07;71.01;97909.39;1729736;82;20906;-71
2021/05/28 10:56:42;;;;;;;4.10;3.40;;;;;;;17.08;71.31;97903.42;1729836;83;21615;-72
2021/05/28 10:59:12;;;;;;;6.47;3.70;;;;;;;17.08;71.27;97906.92;1729787;83;21568;-71
2021/05/28 11:01:55;;;;;;;3.70;3.15;;;;;;;17.10;71.22;97908.73;1729752;82;21104;-71
2021/05/28 11:04:31;;;;;;;7.83;3.62;;;;;;;17.16;71.53;97907.17;1729690;82;21005;-69
2021/05/28 11:07:10;;;;;;;4.30;3.52;;;;;;;17.14;71.71;97906.16;1728918;83;21087;-71
2021/05/28 11:09:50;;;;;;;6.47;4.83;;;;;;;17.15;71.98;97906.38;1729871;83;20952;-71
2021/05/28 11:12:37;;;;;;;7.45;5.85;;;;;;;17.13;72.15;97908.62;1729931;83;20969;-69
2021/05/28 11:15:14;;;;;;;8.60;6.15;;;;;;;17.08;72.31;97908.83;1728783;82;21095;-70
2021/05/28 11:18:03;;;;;;;8.55;6.47;;;;;;;17.05;72.70;97914.94;1729632;83;20912;-68
2021/05/28 11:20:36;;;;;;;12.33;6.30;;;;;;;17.07;73.02;97911.33;1729767;82;21440;-68
2021/05/28 11:23:16;;;;;;;7.53;5.87;;;;;;;17.07;72.93;97911.33;1728170;82;21152;-69
2021/05/28 11:25:51;;;;;;;8.53;6.03;;;;;;;17.07;72.92;97904.56;1728587;83;21119;-68
2021/05/28 11:28:20;;;;;;;11.18;5.72;;;;;;;17.07;73.02;97904.56;1710285;81;21089;-70
2021/05/28 11:30:55;;;;;;;7.25;4.58;;;;;;;17.04;73.00;97902.52;1728663;83;21745;-68
2021/05/28 11:33:44;;;;;;;6.47;4.58;;;;;;;16.99;73.14;97906.78;1712100;83;21144;-68
2021/05/28 11:36:35;;;;;;;5.35;4.12;;;;;;;16.96;72.99;97898.77;1728561;82;21057;-70
2021/05/28 11:39:21;;;;;;;6.10;4.30;;;;;;;16.96;73.61;97904.73;1729796;83;20915;-69
2021/05/28 11:42:01;;;;;;;5.42;4.50;;;;;;;16.98;73.96;97905.22;1729875;83;21087;-69
2021/05/28 11:44:31;;;;;;;4.08;3.25;;;;;;;16.94;74.60;97905.63;1728079;83;21045;-69
2021/05/28 11:46:59;;;;;;;5.20;3.20;;;;;;;16.91;74.28;97906.32;1726735;82;21407;-69
2021/05/28 11:49:27;;;;;;;5.12;3.25;;;;;;;16.90;74.61;97904.72;1726100;81;21133;-67
2021/05/28 11:52:05;;;;;;;5.45;3.33;;;;;;;16.84;74.71;97907.42;1729639;83;20927;-72
2021/05/28 11:54:35;;;;;;;5.35;2.85;;;;;;;16.76;75.08;97912.34;1729822;83;22010;-72
2021/05/28 11:57:09;;;;;;;7.28;3.65;;;;;;;16.68;75.31;97913.19;1729727;82;20920;-69
2021/05/28 11:59:56;;;;;;;5.37;3.22;;;;;;;16.59;75.38;97904.36;1727303;81;21161;-70
2021/05/28 12:02:44;;;;;;;3.75;2.35;;;;;;;16.52;75.31;97904.09;1729629;83;21022;-67
2021/05/28 12:05:34;;;;;;;5.95;2.58;;;;;;;16.41;75.36;97909.09;1729812;83;20966;-71
2021/05/28 12:08:17;;;;;;;9.53;3.37;;;;;;;16.30;75.29;97907.33;1729719;83;21064;-69
